Time;durP1;ratioP1;P1;durP2;ratioP2;P2;SDS_P1;SDS_P2;PMS_P1;PMS_P2;Temp;Humidity;BMP_temperature;BMP_pressure;BME280_temperature;BME280_humidity;BME280_pressure;Samples;Min_cycle;Max_cycle;Signal;HPM_P1;HPM_P2
2024/03/29 00:00:36;;;;;;;4.88;1.02;;;8.10;22.20;;;;;;5072791;28;20029;-71
2024/03/29 00:03:02;;;;;;;2.67;1.10;;;8.00;48.40;;;;;;5073411;28;20029;-71
2024/03/29 00:05:27;;;;;;;3.83;0.95;;;8.00;51.70;;;;;;5076678;28;20048;-71
2024/03/29 00:07:53;;;;;;;5.50;1.10;;;8.00;96.70;;;;;;5076544;28;20031;-71
2024/03/29 00:10:18;;;;;;;5.97;1.98;;;7.90;66.50;;;;;;5076445;28;20482;-71
2024/03/29 00:12:44;;;;;;;4.75;1.20;;;7.80;99.90;;;;;;5076385;28;20126;-71
2024/03/29 00:15:09;;;;;;;4.10;1.10;;;7.70;99.90;;;;;;5075981;28;20487;-71
2024/03/29 00:17:35;;;;;;;3.78;1.77;;;7.70;99.90;;;;;;5075894;28;20055;-72
2024/03/29 00:20:01;;;;;;;5.97;1.05;;;7.70;99.90;;;;;;5075947;28;20027;-73
2024/03/29 00:22:28;;;;;;;6.90;0.80;;;7.70;99.90;;;;;;5075986;28;20016;-72
2024/03/29 00:24:53;;;;;;;3.90;1.23;;;7.70;99.90;;;;;;5075982;28;20028;-72
2024/03/29 00:27:19;;;;;;;4.05;1.17;;;7.60;99.90;;;;;;5076106;28;20028;-72
2024/03/29 00:29:46;;;;;;;2.72;1.20;;;7.50;99.90;;;;;;5076053;28;20078;-72
2024/03/29 00:32:12;;;;;;;4.93;1.10;;;7.60;99.90;;;;;;5076028;28;20544;-72
2024/03/29 00:34:38;;;;;;;2.08;0.75;;;7.60;99.90;;;;;;5076023;28;20064;-72
2024/03/29 00:37:03;;;;;;;5.60;1.30;;;7.60;99.90;;;;;;5075469;28;20029;-72
2024/03/29 00:39:29;;;;;;;3.90;1.30;;;7.70;99.00;;;;;;5075593;28;20036;-72
2024/03/29 00:41:55;;;;;;;4.75;1.30;;;7.70;99.90;;;;;;5075720;28;20032;-72
2024/03/29 00:44:21;;;;;;;4.20;1.20;;;7.70;74.20;;;;;;5075409;28;20055;-72
2024/03/29 00:46:47;;;;;;;3.75;1.10;;;7.70;87.30;;;;;;5075347;28;20115;-72
2024/03/29 00:49:13;;;;;;;4.03;1.20;;;7.80;24.50;;;;;;5075419;28;20166;-72
2024/03/29 00:51:39;;;;;;;3.50;0.90;;;7.90;17.30;;;;;;5075339;28;20020;-72
2024/03/29 00:54:05;;;;;;;3.60;1.10;;;7.80;4.70;;;;;;5075184;28;20054;-72
2024/03/29 00:56:30;;;;;;;4.15;1.17;;;7.80;1.00;;;;;;5075236;28;20115;-72
2024/03/29 00:58:56;;;;;;;5.18;1.00;;;7.80;1.00;;;;;;5075629;28;20029;-72
2024/03/29 01:01:21;;;;;;;7.65;1.13;;;7.70;1.00;;;;;;5075092;28;20487;-72
2024/03/29 01:03:47;;;;;;;3.08;1.23;;;7.80;1.00;;;;;;5075058;28;20078;-72
2024/03/29 01:06:13;;;;;;;4.90;1.17;;;7.80;1.00;;;;;;5075347;28;20407;-72
2024/03/29 01:08:38;;;;;;;3.42;1.23;;;7.80;1.00;;;;;;5075365;28;20025;-72
2024/03/29 01:11:04;;;;;;;5.07;1.20;;;7.70;2.80;;;;;;5075378;28;20028;-72
2024/03/29 01:13:30;;;;;;;3.70;1.67;;;7.70;29.30;;;;;;5074910;28;20028;-72
2024/03/29 01:15:55;;;;;;;2.42;1.10;;;7.80;16.30;;;;;;5074606;28;20025;-72
2024/03/29 01:18:21;;;;;;;4.93;1.17;;;7.70;13.10;;;;;;5075118;28;20032;-72
2024/03/29 01:20:46;;;;;;;3.17;0.95;;;7.70;44.70;;;;;;5074700;28;20386;-72
2024/03/29 01:23:12;;;;;;;2.97;1.00;;;7.70;51.20;;;;;;5075043;28;20073;-72
2024/03/29 01:25:37;;;;;;;3.83;0.93;;;7.70;40.60;;;;;;5074678;28;20020;-72
2024/03/29 01:28:04;;;;;;;3.70;1.20;;;7.60;57.70;;;;;;5075071;28;20039;-72
2024/03/29 01:30:30;;;;;;;3.78;1.20;;;7.60;75.90;;;;;;5074493;28;20020;-72
2024/03/29 01:32:55;;;;;;;2.38;0.80;;;7.50;86.40;;;;;;5074949;28;20082;-72
2024/03/29 01:35:21;;;;;;;7.30;1.30;;;7.60;97.00;;;;;;5074798;28;20046;-72
2024/03/29 01:37:46;;;;;;;9.38;1.20;;;7.50;99.90;;;;;;5074441;28;20036;-71
2024/03/29 01:40:12;;;;;;;2.35;1.20;;;7.50;99.90;;;;;;5074724;28;20039;-71
2024/03/29 01:42:37;;;;;;;4.38;1.02;;;7.50;99.90;;;;;;5074782;28;20387;-71
2024/03/29 01:45:04;;;;;;;3.80;1.02;;;7.40;99.90;;;;;;5074259;28;20020;-71
2024/03/29 01:47:29;;;;;;;5.43;1.33;;;7.40;99.90;;;;;;5074457;28;20032;-71
2024/03/29 01:49:55;;;;;;;5.18;1.20;;;7.50;99.90;;;;;;5074671;28;20032;-72
2024/03/29 01:52:21;;;;;;;4.93;1.20;;;7.50;99.90;;;;;;5074061;28;20047;-72
2024/03/29 01:54:48;;;;;;;3.42;1.05;;;7.50;99.90;;;;;;5074520;28;20040;-72
2024/03/29 01:57:13;;;;;;;1.85;0.80;;;7.50;99.90;;;;;;5073961;28;20032;-72
2024/03/29 01:59:42;;;;;;;2.83;1.20;;;7.40;99.90;;;;;;5074011;28;20021;-72
2024/03/29 02:02:08;;;;;;;3.03;0.93;;;7.40;99.90;;;;;;5074185;28;20044;-72
2024/03/29 02:04:35;;;;;;;2.30;0.95;;;7.40;99.90;;;;;;5073860;28;20033;-72
2024/03/29 02:07:01;;;;;;;3.10;1.00;;;7.40;99.90;;;;;;5074213;28;20028;-72
2024/03/29 02:09:26;;;;;;;4.80;1.40;;;7.30;99.90;;;;;;5074269;28;20425;-72
2024/03/29 02:11:52;;;;;;;2.70;0.80;;;7.20;99.90;;;;;;5074097;28;20035;-72
2024/03/29 02:14:18;;;;;;;2.03;1.23;;;7.20;1.00;;;;;;5073995;28;20138;-73
2024/03/29 02:16:43;;;;;;;4.03;1.00;;;7.20;1.00;;;;;;5073424;28;20049;-72
2024/03/29 02:19:09;;;;;;;3.13;1.08;;;7.20;1.00;;;;;;5074008;28;20044;-73
2024/03/29 02:21:39;;;;;;;6.10;1.77;;;7.20;1.00;;;;;;5073860;28;20025;-72
2024/03/29 02:24:07;;;;;;;4.45;1.35;;;7.20;1.00;;;;;;5073844;28;20057;-72
2024/03/29 02:26:36;;;;;;;4.50;1.23;;;7.40;1.00;;;;;;5073166;28;20028;-72
2024/03/29 02:29:02;;;;;;;3.33;1.13;;;7.40;1.00;;;;;;5073465;28;20028;-72
2024/03/29 02:31:28;;;;;;;3.05;1.17;;;7.50;99.90;;;;;;5073897;28;20486;-72
2024/03/29 02:33:53;;;;;;;3.80;1.30;;;7.50;99.90;;;;;;5073304;28;20167;-72
2024/03/29 02:36:19;;;;;;;2.13;0.93;;;7.50;99.90;;;;;;5073249;28;20070;-72
2024/03/29 02:38:45;;;;;;;6.32;1.23;;;7.60;99.90;;;;;;5073190;28;20028;-72
2024/03/29 02:41:10;;;;;;;1.90;0.90;;;7.70;99.90;;;;;;5073167;28;20028;-72
2024/03/29 02:43:36;;;;;;;5.10;0.80;;;7.80;99.90;;;;;;5073242;28;20029;-72
2024/03/29 02:46:01;;;;;;;2.75;0.70;;;7.90;99.90;;;;;;5073362;28;20024;-72
2024/03/29 02:48:27;;;;;;;7.10;1.17;;;7.90;99.90;;;;;;5073171;28;20024;-72
2024/03/29 02:50:52;;;;;;;2.83;1.00;;;7.90;99.90;;;;;;5073054;28;20066;-72
2024/03/29 02:53:18;;;;;;;3.20;1.30;;;8.00;99.90;;;;;;5073038;28;20066;-72
2024/03/29 02:55:43;;;;;;;5.35;1.30;;;8.00;44.10;;;;;;5073046;28;20035;-72
2024/03/29 02:58:09;;;;;;;6.13;1.25;;;8.10;24.20;;;;;;5073058;28;20025;-72
2024/03/29 03:00:34;;;;;;;2.53;0.90;;;8.10;38.10;;;;;;5073321;28;20025;-72
2024/03/29 03:03:00;;;;;;;4.30;1.52;;;8.20;27.50;;;;;;5073047;28;20486;-72
2024/03/29 03:05:25;;;;;;;3.20;1.30;;;8.20;1.00;;;;;;5073283;28;20470;-72
2024/03/29 03:11:00;;;;;;;2.65;1.10;;;8.40;1.00;;;;;;5073002;28;20029;-72
2024/03/29 03:13:29;;;;;;;4.90;1.10;;;8.60;1.00;;;;;;5073287;28;20028;-72
2024/03/29 03:15:55;;;;;;;3.03;1.17;;;8.70;99.90;;;;;;5072725;28;20532;-72
2024/03/29 03:18:21;;;;;;;5.20;1.00;;;8.70;99.90;;;;;;5072748;28;20536;-72
2024/03/29 03:20:51;;;;;;;5.43;1.58;;;8.80;1.00;;;;;;5073136;28;20028;-72
2024/03/29 03:23:17;;;;;;;4.93;1.15;;;8.80;1.00;;;;;;5073100;28;20155;-72
2024/03/29 03:25:42;;;;;;;3.88;1.20;;;8.90;1.00;;;;;;5072725;28;20465;-72
2024/03/29 03:28:08;;;;;;;2.58;0.88;;;8.90;15.30;;;;;;5073079;28;20029;-72
2024/03/29 03:30:39;;;;;;;4.25;1.25;;;9.00;22.30;;;;;;5072706;28;20466;-72
2024/03/29 03:33:04;;;;;;;3.25;0.88;;;9.10;91.30;;;;;;5072704;28;20043;-72
2024/03/29 03:35:30;;;;;;;4.20;1.17;;;9.20;1.00;;;;;;5073125;28;20033;-72
2024/03/29 03:37:56;;;;;;;3.25;1.00;;;9.20;1.00;;;;;;5073284;28;20024;-72
2024/03/29 03:40:21;;;;;;;5.82;1.40;;;9.30;1.00;;;;;;5076957;28;20078;-72
2024/03/29 03:42:47;;;;;;;14.13;1.77;;;9.40;1.00;;;;;;5077035;28;20493;-72
2024/03/29 03:45:13;;;;;;;4.55;1.23;;;9.50;99.90;;;;;;5076621;28;20021;-72
2024/03/29 03:47:38;;;;;;;1.38;0.60;;;9.70;99.90;;;;;;5076447;28;20036;-72
2024/03/29 03:50:04;;;;;;;2.92;0.80;;;9.80;99.90;;;;;;5076464;28;20036;-72
2024/03/29 03:52:30;;;;;;;2.45;0.77;;;9.90;1.00;;;;;;5076995;28;20085;-73
2024/03/29 03:54:56;;;;;;;2.65;0.52;;;10.00;1.00;;;;;;5076358;28;20020;-72
2024/03/29 03:57:22;;;;;;;2.63;0.77;;;10.00;99.90;;;;;;5076258;28;20077;-72
2024/03/29 03:59:49;;;;;;;1.77;0.70;;;10.00;99.90;;;;;;5076540;28;20048;-72
2024/03/29 04:02:15;;;;;;;5.15;1.05;;;10.10;99.90;;;;;;5076168;28;20119;-72
2024/03/29 04:04:41;;;;;;;1.88;0.73;;;10.10;99.90;;;;;;5076572;28;20110;-72
2024/03/29 04:07:06;;;;;;;3.90;0.88;;;10.00;99.90;;;;;;5076584;28;20032;-72
2024/03/29 04:09:32;;;;;;;2.10;0.80;;;10.00;99.90;;;;;;5076541;28;20033;-72
2024/03/29 04:11:58;;;;;;;2.83;0.90;;;9.90;97.50;;;;;;5076145;28;20051;-72
2024/03/29 04:14:23;;;;;;;2.60;1.10;;;9.80;99.90;;;;;;5076400;28;20028;-72
2024/03/29 04:16:49;;;;;;;2.50;1.00;;;9.80;99.90;;;;;;5076049;28;20044;-71
2024/03/29 04:19:14;;;;;;;2.25;0.73;;;9.70;99.90;;;;;;5076178;28;20027;-72
2024/03/29 04:21:40;;;;;;;0.98;0.75;;;9.70;99.90;;;;;;5075764;28;20056;-72
2024/03/29 04:24:09;;;;;;;2.20;0.73;;;9.60;99.90;;;;;;5075831;28;20033;-72
2024/03/29 04:26:35;;;;;;;2.55;1.13;;;9.50;99.90;;;;;;5075800;28;20493;-72
2024/03/29 04:29:01;;;;;;;5.63;0.93;;;9.50;99.90;;;;;;5075804;28;20123;-72
2024/03/29 04:31:26;;;;;;;1.63;0.68;;;9.40;99.90;;;;;;5076272;28;20037;-72
2024/03/29 04:33:52;;;;;;;3.80;1.30;;;9.30;1.00;;;;;;5076063;28;20123;-72
2024/03/29 04:36:17;;;;;;;4.43;0.75;;;9.20;1.00;;;;;;5075489;28;20035;-71
2024/03/29 04:38:44;;;;;;;3.30;1.05;;;9.20;99.90;;;;;;5075600;28;20024;-71
2024/03/29 04:41:09;;;;;;;2.55;1.27;;;9.10;1.00;;;;;;5075825;28;20025;-71
2024/03/29 04:43:35;;;;;;;3.92;0.93;;;9.00;99.90;;;;;;5075863;28;20020;-71
2024/03/29 04:46:06;;;;;;;2.30;0.95;;;8.90;99.90;;;;;;5075491;28;20032;-71
2024/03/29 04:48:32;;;;;;;2.08;0.65;;;8.80;1.00;;;;;;5075231;28;20027;-71
2024/03/29 04:50:58;;;;;;;3.92;0.82;;;8.80;99.90;;;;;;5075524;28;20111;-71
2024/03/29 04:53:23;;;;;;;3.97;0.70;;;8.70;99.90;;;;;;5075645;28;20474;-71
2024/03/29 04:55:57;;;;;;;3.22;1.00;;;8.70;99.90;;;;;;5075625;28;20371;-71
2024/03/29 04:58:24;;;;;;;7.50;0.90;;;8.60;1.00;;;;;;5075121;28;20119;-71
2024/03/29 05:00:49;;;;;;;4.03;1.00;;;8.60;99.90;;;;;;5075137;28;20017;-71
2024/03/29 05:03:17;;;;;;;2.83;0.80;;;8.50;99.90;;;;;;5075471;28;20025;-71
2024/03/29 05:05:42;;;;;;;2.63;0.90;;;8.60;1.00;;;;;;5075094;28;20394;-72
2024/03/29 05:08:08;;;;;;;5.30;0.93;;;8.70;99.90;;;;;;5075356;28;20036;-72
2024/03/29 05:10:34;;;;;;;5.18;0.95;;;8.60;1.00;;;;;;5075458;28;20089;-72
2024/03/29 05:13:00;;;;;;;4.68;0.77;;;8.50;99.90;;;;;;5075090;28;20021;-71
2024/03/29 05:15:26;;;;;;;3.45;1.48;;;8.50;1.00;;;;;;5075157;28;20036;-71
2024/03/29 05:17:53;;;;;;;1.77;1.00;;;8.40;99.90;;;;;;5074707;28;20098;-73
2024/03/29 05:20:19;;;;;;;4.00;0.77;;;8.30;99.90;;;;;;5074765;28;20115;-72
2024/03/29 05:22:44;;;;;;;2.78;0.90;;;8.30;99.90;;;;;;5074759;28;20525;-72
2024/03/29 05:25:10;;;;;;;2.35;0.98;;;8.30;1.00;;;;;;5075203;28;20497;-71
2024/03/29 05:27:35;;;;;;;4.50;1.23;;;8.30;1.00;;;;;;5075080;28;20028;-71
2024/03/29 05:30:03;;;;;;;4.68;0.80;;;8.20;1.00;;;;;;5075067;28;20036;-71
2024/03/29 05:32:29;;;;;;;3.13;1.00;;;8.20;1.00;;;;;;5074694;28;20577;-71
2024/03/29 05:34:54;;;;;;;5.10;1.10;;;8.30;1.00;;;;;;5074438;28;20033;-72
2024/03/29 05:37:21;;;;;;;3.20;0.80;;;8.20;1.00;;;;;;5074636;28;20035;-72
2024/03/29 05:39:47;;;;;;;2.55;0.80;;;8.20;1.00;;;;;;5074812;28;20021;-71
2024/03/29 05:42:13;;;;;;;5.70;1.13;;;8.10;1.00;;;;;;5074699;28;20054;-72
2024/03/29 05:44:38;;;;;;;2.17;0.93;;;8.10;18.90;;;;;;5074243;28;20070;-73
2024/03/29 05:47:05;;;;;;;3.35;1.00;;;8.00;35.80;;;;;;5074332;28;20024;-73
2024/03/29 05:49:32;;;;;;;2.63;1.00;;;8.00;57.00;;;;;;5074721;28;20036;-72
2024/03/29 05:51:58;;;;;;;2.85;1.10;;;7.90;95.30;;;;;;5074612;28;20395;-72
2024/03/29 05:54:24;;;;;;;4.03;1.20;;;7.90;99.90;;;;;;5074613;28;20039;-72
2024/03/29 05:56:50;;;;;;;4.07;1.38;;;7.80;99.90;;;;;;5074012;28;20031;-72
2024/03/29 05:59:15;;;;;;;2.83;1.33;;;7.80;99.90;;;;;;5074042;28;20029;-72
2024/03/29 06:01:41;;;;;;;4.53;1.33;;;7.80;99.90;;;;;;5073216;28;20039;-72
2024/03/29 06:04:15;;;;;;;2.80;1.50;;;7.70;99.90;;;;;;5074386;28;20047;-72
2024/03/29 06:06:41;;;;;;;5.50;1.45;;;7.70;99.90;;;;;;5074347;28;20115;-72
2024/03/29 06:09:06;;;;;;;4.80;1.70;;;7.70;99.90;;;;;;5074269;28;20447;-71
2024/03/29 06:11:32;;;;;;;2.88;1.42;;;7.70;99.90;;;;;;5074150;28;20032;-73
2024/03/29 06:19:13;;;;;;;4.60;1.52;;;7.70;99.90;;;;;;5073750;28;20024;-71
2024/03/29 06:21:39;;;;;;;3.38;1.40;;;7.70;99.90;;;;;;5074011;28;20090;-73
2024/03/29 06:24:07;;;;;;;2.67;1.42;;;7.70;99.90;;;;;;5074073;28;20032;-72
2024/03/29 06:26:34;;;;;;;5.20;1.70;;;7.70;99.90;;;;;;5073733;28;20074;-72
2024/03/29 06:29:01;;;;;;;3.88;1.40;;;7.70;99.90;;;;;;5074044;28;20048;-73
2024/03/29 06:31:27;;;;;;;5.57;1.58;;;7.70;99.90;;;;;;5073886;28;20055;-74
2024/03/29 06:33:54;;;;;;;7.72;1.50;;;7.70;99.90;;;;;;5073320;28;20051;-72
2024/03/29 06:36:19;;;;;;;7.70;2.40;;;7.80;99.90;;;;;;5073309;28;20517;-72
2024/03/29 06:38:45;;;;;;;4.25;1.70;;;7.80;99.90;;;;;;5073360;28;20048;-72
2024/03/29 06:41:10;;;;;;;3.63;1.42;;;7.80;99.90;;;;;;5073707;28;20024;-71
2024/03/29 06:43:36;;;;;;;3.03;1.23;;;7.70;99.90;;;;;;5073627;28;20024;-72
2024/03/29 06:46:03;;;;;;;3.63;1.60;;;7.70;99.90;;;;;;5073295;28;20027;-72
2024/03/29 06:48:31;;;;;;;8.73;1.90;;;7.80;99.90;;;;;;5073487;28;20115;-71
2024/03/29 06:50:57;;;;;;;4.15;2.00;;;7.80;99.90;;;;;;5073043;28;20170;-71
2024/03/29 06:53:23;;;;;;;2.03;1.25;;;7.80;99.90;;;;;;5073473;28;20405;-71
2024/03/29 06:55:49;;;;;;;2.88;1.35;;;7.90;99.90;;;;;;5073529;28;20149;-70
2024/03/29 06:58:15;;;;;;;3.22;1.42;;;8.00;99.90;;;;;;5073081;28;20125;-72
2024/03/29 07:00:40;;;;;;;5.63;1.27;;;8.00;99.90;;;;;;5073404;28;20172;-71
2024/03/29 07:03:07;;;;;;;6.63;1.70;;;8.20;99.90;;;;;;5073163;28;20024;-71
2024/03/29 07:05:32;;;;;;;4.13;1.50;;;8.30;99.90;;;;;;5073441;28;20063;-71
2024/03/29 07:07:59;;;;;;;2.72;1.30;;;8.40;99.90;;;;;;5072866;28;20111;-72
2024/03/29 07:10:25;;;;;;;3.53;1.20;;;8.50;99.90;;;;;;5072916;28;20029;-70
2024/03/29 07:12:51;;;;;;;3.05;1.33;;;8.50;99.90;;;;;;5073111;28;20028;-70
2024/03/29 07:15:16;;;;;;;2.83;1.38;;;8.50;99.90;;;;;;5073379;28;20044;-72
2024/03/29 07:17:43;;;;;;;6.70;1.52;;;8.60;99.90;;;;;;5072850;28;20044;-71
2024/03/29 07:20:09;;;;;;;3.03;1.30;;;8.60;99.90;;;;;;5073402;28;20020;-71
2024/03/29 07:22:35;;;;;;;5.03;1.60;;;8.70;99.90;;;;;;5072908;28;20048;-71
2024/03/29 07:25:00;;;;;;;3.65;1.50;;;8.70;99.90;;;;;;5073367;28;20087;-71
2024/03/29 07:27:27;;;;;;;4.38;1.63;;;8.70;99.90;;;;;;5073128;28;20486;-71
2024/03/29 07:29:56;;;;;;;4.13;1.60;;;8.70;99.90;;;;;;5073100;28;20429;-71
2024/03/29 07:32:21;;;;;;;5.60;1.58;;;8.80;99.90;;;;;;5073192;28;20032;-71
2024/03/29 07:34:47;;;;;;;3.15;1.80;;;8.80;99.90;;;;;;5072736;28;20074;-70
2024/03/29 07:37:15;;;;;;;4.97;1.80;;;8.80;99.90;;;;;;5072943;28;20074;-71
2024/03/29 07:39:41;;;;;;;3.50;1.65;;;8.80;99.90;;;;;;5073067;28;20112;-70
2024/03/29 07:42:07;;;;;;;5.43;1.67;;;8.90;99.90;;;;;;5073138;28;20033;-71
2024/03/29 07:44:33;;;;;;;3.88;1.60;;;9.00;99.90;;;;;;5073183;28;20028;-72
2024/03/29 07:46:59;;;;;;;2.78;1.45;;;9.10;99.90;;;;;;5072939;28;20154;-71
2024/03/29 07:49:24;;;;;;;3.20;1.30;;;9.20;99.90;;;;;;5072601;28;20541;-71
2024/03/29 07:51:50;;;;;;;5.03;1.45;;;9.30;99.90;;;;;;5072535;28;20144;-71
2024/03/29 07:54:15;;;;;;;3.55;1.33;;;9.40;99.90;;;;;;5073017;28;20036;-72
2024/03/29 07:56:41;;;;;;;3.83;1.33;;;9.50;99.90;;;;;;5072500;28;20064;-71
2024/03/29 07:59:06;;;;;;;5.40;1.65;;;9.50;99.90;;;;;;5073077;28;20454;-72
2024/03/29 08:01:32;;;;;;;10.07;1.80;;;9.40;99.90;;;;;;5072916;28;20090;-71
2024/03/29 08:03:57;;;;;;;3.28;1.83;;;9.40;99.90;;;;;;5072405;28;20360;-71
2024/03/29 08:06:23;;;;;;;5.72;1.48;;;9.40;99.90;;;;;;5072831;28;20029;-70
2024/03/29 08:08:50;;;;;;;3.35;1.60;;;9.40;99.90;;;;;;5072820;28;20107;-72
2024/03/29 08:11:16;;;;;;;3.70;1.75;;;9.50;99.90;;;;;;5072378;28;20024;-71
2024/03/29 08:13:42;;;;;;;3.30;1.85;;;9.60;99.90;;;;;;5072378;28;20555;-70
2024/03/29 08:16:08;;;;;;;5.43;1.83;;;9.60;99.90;;;;;;5072517;28;20064;-70
2024/03/29 08:18:34;;;;;;;2.75;1.40;;;9.70;99.90;;;;;;5072287;28;20036;-70
2024/03/29 08:20:59;;;;;;;2.78;1.40;;;9.80;99.90;;;;;;5072231;28;20021;-72
2024/03/29 08:23:26;;;;;;;2.67;1.25;;;9.80;99.90;;;;;;5072197;28;20052;-70
2024/03/29 08:25:52;;;;;;;3.13;1.30;;;9.80;99.90;;;;;;5075762;28;20020;-71
2024/03/29 08:28:19;;;;;;;3.80;1.10;;;9.90;99.90;;;;;;5076325;28;20386;-70
2024/03/29 08:30:44;;;;;;;4.45;1.80;;;9.90;99.90;;;;;;5076222;28;20028;-72
2024/03/29 08:33:10;;;;;;;2.58;1.40;;;10.10;98.30;;;;;;5076050;28;20051;-72
2024/03/29 08:35:36;;;;;;;3.92;1.30;;;10.20;94.80;;;;;;5076099;28;20387;-72
2024/03/29 08:38:01;;;;;;;1.85;1.00;;;10.30;84.90;;;;;;5075639;28;20024;-72
2024/03/29 08:40:31;;;;;;;2.80;1.30;;;10.30;79.90;;;;;;5075555;28;20017;-71
2024/03/29 08:42:57;;;;;;;1.70;0.90;;;10.40;76.90;;;;;;5075939;28;20025;-71
2024/03/29 08:45:22;;;;;;;2.85;1.27;;;10.50;66.50;;;;;;5075999;28;20029;-73
2024/03/29 08:47:48;;;;;;;2.45;1.10;;;10.60;65.70;;;;;;5076067;28;20111;-72
2024/03/29 08:50:14;;;;;;;1.80;1.08;;;10.60;71.10;;;;;;5075909;28;20039;-71
2024/03/29 08:52:40;;;;;;;1.55;1.20;;;10.60;81.20;;;;;;5075621;28;20368;-72
2024/03/29 08:55:07;;;;;;;3.63;1.38;;;10.70;89.10;;;;;;5075912;28;20033;-72
2024/03/29 08:57:33;;;;;;;3.08;1.00;;;10.60;90.50;;;;;;5075628;28;20036;-72
2024/03/29 08:59:58;;;;;;;2.72;1.25;;;10.70;79.70;;;;;;5075593;28;20025;-71
2024/03/29 09:02:24;;;;;;;5.38;1.90;;;10.80;71.70;;;;;;5075352;28;20035;-71
2024/03/29 09:04:50;;;;;;;1.70;1.10;;;10.80;58.30;;;;;;5075090;28;20029;-72
2024/03/29 09:07:15;;;;;;;1.00;0.90;;;10.80;69.60;;;;;;5075472;28;20505;-71
2024/03/29 09:09:41;;;;;;;1.13;0.95;;;10.90;51.90;;;;;;5075556;28;20032;-71
2024/03/29 09:12:08;;;;;;;5.25;1.00;;;10.90;54.10;;;;;;5075150;28;20504;-72
2024/03/29 09:14:34;;;;;;;2.47;1.15;;;11.10;42.10;;;;;;5075467;28;20030;-72
2024/03/29 09:17:00;;;;;;;1.75;0.95;;;11.20;39.50;;;;;;5074685;28;20397;-72
2024/03/29 09:19:26;;;;;;;2.30;1.05;;;11.40;30.20;;;;;;5075217;28;20386;-72
2024/03/29 09:21:52;;;;;;;1.88;0.90;;;11.50;2.50;;;;;;5074865;28;20042;-72
2024/03/29 09:24:18;;;;;;;1.13;1.00;;;11.60;13.40;;;;;;5074808;28;20025;-72
2024/03/29 09:26:43;;;;;;;1.45;1.00;;;11.70;1.00;;;;;;5075140;28;20024;-72
2024/03/29 09:29:10;;;;;;;1.42;1.10;;;11.70;2.10;;;;;;5075058;28;20028;-73
2024/03/29 09:31:35;;;;;;;1.98;1.00;;;11.80;1.00;;;;;;5074765;28;20016;-72
2024/03/29 09:34:01;;;;;;;1.88;1.20;;;11.70;1.00;;;;;;5074541;28;20025;-72
2024/03/29 09:36:27;;;;;;;1.58;1.10;;;11.80;7.40;;;;;;5074787;28;20024;-72
2024/03/29 09:38:52;;;;;;;1.58;1.05;;;12.00;1.00;;;;;;5074456;28;20055;-72
2024/03/29 09:41:19;;;;;;;1.38;0.90;;;12.10;1.00;;;;;;5074843;28;20025;-72
2024/03/29 09:43:47;;;;;;;2.20;1.20;;;12.00;1.00;;;;;;5074482;28;20051;-73
2024/03/29 09:46:13;;;;;;;1.38;0.82;;;12.20;1.00;;;;;;5074393;28;20597;-72
2024/03/29 09:48:41;;;;;;;1.42;0.73;;;12.50;1.00;;;;;;5074219;28;20036;-73
2024/03/29 09:51:08;;;;;;;1.27;0.75;;;12.70;1.00;;;;;;5074787;28;20048;-72
2024/03/29 09:53:36;;;;;;;1.13;0.80;;;12.70;1.00;;;;;;5074258;28;20025;-73
2024/03/29 09:56:05;;;;;;;2.58;0.90;;;12.80;1.00;;;;;;5074437;28;20115;-72
2024/03/29 09:58:31;;;;;;;3.17;0.77;;;13.00;1.00;;;;;;5073944;28;20067;-73
2024/03/29 10:00:57;;;;;;;2.95;1.00;;;13.10;1.00;;;;;;5073986;28;20017;-72
2024/03/29 10:03:28;;;;;;;2.05;0.80;;;13.20;1.00;;;;;;5073970;28;20493;-72
2024/03/29 10:05:58;;;;;;;1.80;0.80;;;13.20;1.00;;;;;;5073808;28;20070;-72
2024/03/29 10:08:26;;;;;;;1.52;0.80;;;13.20;1.00;;;;;;5073921;28;20554;-72
2024/03/29 10:10:54;;;;;;;0.75;0.60;;;13.30;1.00;;;;;;5074280;28;20506;-72
2024/03/29 10:13:20;;;;;;;2.67;0.82;;;13.20;1.00;;;;;;5074103;28;20064;-72
2024/03/29 10:15:49;;;;;;;2.15;0.95;;;13.30;1.00;;;;;;5073926;28;20074;-72
2024/03/29 10:18:15;;;;;;;1.98;1.00;;;13.30;1.00;;;;;;5073621;28;20051;-72
2024/03/29 10:20:41;;;;;;;1.45;0.80;;;13.20;1.00;;;;;;5074106;28;20390;-71
2024/03/29 10:23:08;;;;;;;0.60;0.60;;;13.40;1.00;;;;;;5073691;28;20021;-71
2024/03/29 10:25:34;;;;;;;1.98;0.90;;;13.40;1.00;;;;;;5073564;28;20162;-71
2024/03/29 10:28:01;;;;;;;1.05;0.60;;;13.50;1.00;;;;;;5073505;28;20379;-72
2024/03/29 10:30:27;;;;;;;0.70;0.70;;;13.70;99.90;;;;;;5073498;28;20120;-71
2024/03/29 10:32:55;;;;;;;0.80;0.80;;;13.60;99.90;;;;;;5073542;28;20060;-70
2024/03/29 10:35:20;;;;;;;2.63;1.08;;;13.60;99.90;;;;;;5073551;28;20123;-71
2024/03/29 10:37:46;;;;;;;2.03;0.80;;;13.60;99.90;;;;;;5073621;28;20112;-71
2024/03/29 10:40:16;;;;;;;2.20;0.88;;;13.70;99.90;;;;;;5073762;28;20024;-70
2024/03/29 10:42:44;;;;;;;1.42;0.80;;;13.60;99.90;;;;;;5073334;28;20070;-71
2024/03/29 10:45:10;;;;;;;0.90;0.70;;;13.70;99.90;;;;;;5073659;28;20157;-70
2024/03/29 10:47:36;;;;;;;0.85;0.80;;;13.70;99.90;;;;;;5073384;28;20381;-71
2024/03/29 10:50:05;;;;;;;2.15;0.85;;;13.80;99.90;;;;;;5073166;28;20120;-70
2024/03/29 10:52:31;;;;;;;2.03;0.80;;;13.80;99.90;;;;;;5073092;28;20025;-70
2024/03/29 10:54:56;;;;;;;2.25;1.00;;;13.80;99.90;;;;;;5073579;28;20102;-71
2024/03/29 10:57:25;;;;;;;3.28;0.85;;;13.80;99.90;;;;;;5073063;28;20115;-71
2024/03/29 11:00:18;;;;;;;1.30;0.73;;;13.80;1.00;;;;;;5073454;28;20032;-71
2024/03/29 11:03:12;;;;;;;1.10;1.00;;;13.70;88.50;;;;;;5072912;28;20016;-71
2024/03/29 11:05:41;;;;;;;1.15;0.88;;;14.00;1.00;;;;;;5073429;28;20024;-69
2024/03/29 11:08:08;;;;;;;3.03;0.80;;;13.90;77.10;;;;;;5073463;28;20119;-70
2024/03/29 11:10:40;;;;;;;1.95;0.65;;;13.90;99.90;;;;;;5073522;28;20542;-71
2024/03/29 11:13:15;;;;;;;0.98;0.80;;;13.90;99.90;;;;;;5073021;28;20062;-71
2024/03/29 11:15:44;;;;;;;2.17;0.80;;;14.10;99.90;;;;;;5073365;28;20136;-71
2024/03/29 11:18:10;;;;;;;1.70;0.88;;;14.20;99.90;;;;;;5072745;28;20053;-71
2024/03/29 11:20:39;;;;;;;0.47;0.47;;;14.40;1.00;;;;;;5073239;28;20029;-71
2024/03/29 11:23:10;;;;;;;0.77;0.65;;;14.20;99.90;;;;;;5073273;28;20036;-71
2024/03/29 11:25:44;;;;;;;1.65;0.80;;;14.40;99.90;;;;;;5073213;28;20021;-71
2024/03/29 11:28:14;;;;;;;0.70;0.57;;;14.50;99.90;;;;;;5073216;28;20051;-70
2024/03/29 11:30:42;;;;;;;1.30;0.80;;;14.30;99.90;;;;;;5072810;28;20033;-70
2024/03/29 11:33:08;;;;;;;3.88;0.70;;;14.20;99.90;;;;;;5072805;28;20071;-71
2024/03/29 11:35:39;;;;;;;1.08;0.60;;;14.30;59.40;;;;;;5072680;28;20028;-71
2024/03/29 11:38:05;;;;;;;1.00;0.50;;;14.40;99.90;;;;;;5072687;28;20036;-71
2024/03/29 11:40:30;;;;;;;0.63;0.60;;;14.50;99.90;;;;;;5072910;28;20056;-71
2024/03/29 11:42:56;;;;;;;0.75;0.52;;;14.90;99.90;;;;;;5072628;28;20501;-72
2024/03/29 11:45:28;;;;;;;1.20;0.63;;;14.90;11.60;;;;;;5072613;28;20017;-70
2024/03/29 11:47:55;;;;;;;0.70;0.70;;;14.80;1.00;;;;;;5072940;28;20111;-70
2024/03/29 11:50:20;;;;;;;2.22;0.60;;;14.90;1.00;;;;;;5072999;28;20040;-70
2024/03/29 11:52:46;;;;;;;1.85;0.80;;;15.10;99.90;;;;;;5072963;28;20023;-73
2024/03/29 11:55:12;;;;;;;2.13;0.77;;;15.40;1.00;;;;;;5072619;28;20024;-72
2024/03/29 11:57:40;;;;;;;0.77;0.43;;;15.40;99.90;;;;;;5072819;28;20060;-72
2024/03/29 12:00:06;;;;;;;0.55;0.50;;;15.60;99.90;;;;;;5075281;28;20048;-73
2024/03/29 12:02:32;;;;;;;1.00;0.77;;;15.30;99.90;;;;;;5076316;28;20474;-73
2024/03/29 12:04:58;;;;;;;0.57;0.50;;;15.40;99.90;;;;;;5076653;28;20120;-73
2024/03/29 12:07:24;;;;;;;2.17;0.68;;;15.70;99.90;;;;;;5076300;28;20029;-72
2024/03/29 12:09:49;;;;;;;2.40;0.60;;;16.10;99.90;;;;;;5076174;28;20035;-73
2024/03/29 12:12:17;;;;;;;1.55;0.60;;;16.00;99.90;;;;;;5076052;28;20034;-73
2024/03/29 12:14:43;;;;;;;0.55;0.50;;;16.10;99.90;;;;;;5076131;28;20118;-73
2024/03/29 12:17:11;;;;;;;1.58;0.70;;;16.10;99.90;;;;;;5076181;28;20123;-73
2024/03/29 12:19:39;;;;;;;1.63;0.80;;;16.00;99.90;;;;;;5075910;28;20024;-72
2024/03/29 12:22:05;;;;;;;0.93;0.60;;;15.70;99.90;;;;;;5076046;28;20021;-72
2024/03/29 12:24:31;;;;;;;1.02;0.80;;;16.00;99.90;;;;;;5076201;28;20024;-73
2024/03/29 12:26:58;;;;;;;2.53;0.70;;;16.00;99.90;;;;;;5075811;28;20025;-72
2024/03/29 12:29:24;;;;;;;1.08;0.65;;;16.10;99.90;;;;;;5075852;28;20029;-72
2024/03/29 12:31:59;;;;;;;1.80;0.70;;;16.00;99.90;;;;;;5076165;28;20043;-74
2024/03/29 12:34:25;;;;;;;1.63;0.63;;;15.90;99.90;;;;;;5076085;28;20028;-72
2024/03/29 12:36:50;;;;;;;1.67;0.70;;;16.10;99.90;;;;;;5075946;28;20032;-72
2024/03/29 12:39:17;;;;;;;0.70;0.60;;;16.40;99.90;;;;;;5075708;28;20108;-73
2024/03/29 12:41:44;;;;;;;0.63;0.50;;;16.30;99.90;;;;;;5076031;28;20021;-72
2024/03/29 12:44:10;;;;;;;0.43;0.40;;;16.00;99.90;;;;;;5075640;28;20479;-73
2024/03/29 12:46:37;;;;;;;1.13;0.80;;;15.90;99.90;;;;;;5075954;28;20382;-73
2024/03/29 12:49:03;;;;;;;2.72;0.60;;;15.70;99.90;;;;;;5075729;28;20024;-73
2024/03/29 12:51:30;;;;;;;1.00;0.90;;;15.50;99.90;;;;;;5075693;28;20063;-72
2024/03/29 12:54:00;;;;;;;0.88;0.70;;;15.60;99.90;;;;;;5075352;28;20082;-73
2024/03/29 12:56:26;;;;;;;1.58;0.93;;;15.60;99.90;;;;;;5075566;28;20496;-71
2024/03/29 12:58:52;;;;;;;1.48;0.70;;;15.30;99.30;;;;;;5075286;28;20024;-73